• Join FlightAware (Why Join?)
  • Login
  • US Flag 
12:38AM EDT


 

Airport Tracker/Info


-or-


 

Live Flight TrackerFlight Track Log ✈ AWE3397 ✈ 03-May-2014 ✈ KPHL - KATL

Flight Track Log - Related Links

Times and Time Zones

All times are in EDT time to prevent confusion due to time zone crossing. See the AWE3397 flight status page for this flight to view local times or setup timezone preferences in your user account.

Time Position Orientation Groundspeed Altitude Reporting Facility
EDT Latitude Longitude Course Direction KTS MPH feet Rate Location/Type
08:05AM 39.8667 -75.2667 270° West 147 169 700  Level Philadelphia TRACON
08:07AM 39.8500 -75.3500 255° West 214 246 2,800 2,220 Climbing Philadelphia TRACON
08:08AM 39.8500 -75.5659 270° West  Level FlightAware Approximate
08:08AM 39.8236 -75.4794 255° West 263 303 7,400  Level New York Center
08:09AM 39.8333 -75.6682 270° West  Level FlightAware Approximate
08:09AM 39.8258 -75.5794 272° West 258 297 10,000  Level New York Center
08:10AM 39.8333 -75.7811 270° West  Level FlightAware Approximate
08:10AM 39.8306 -75.6692 274° West 263 303 10,500  Level New York Center
08:11AM 39.8364 -75.7778 274° West 277 319 12,500 2,400 Climbing New York Center
08:12AM 39.8156 -75.8736 254° West 269 310 15,200 2,580 Climbing New York Center
08:13AM 39.7658 -75.9592 233° Southwest 276 318 17,700 2,280 Climbing New York Center
08:15AM 39.6686 -76.1333 234° Southwest 301 346 22,200 2,100 Climbing Washington Center
08:16AM 39.6203 -76.2164 233° Southwest 306 352 24,200 1,440 Climbing Washington Center
08:17AM 39.5678 -76.3050 232° Southwest 306 352 25,100 960 Climbing Washington Center
08:18AM 39.5131 -76.4039 234° Southwest 328 377 26,200 960 Climbing Washington Center
08:19AM 39.4558 -76.5053 234° Southwest 341 392 27,100 1,200 Climbing Washington Center
08:20AM 39.4011 -76.5933 231° Southwest 352 405 28,700 1,500 Climbing Washington Center
08:21AM 39.3439 -76.6864 232° Southwest 352 405 30,200 1,260 Climbing Washington Center
08:22AM 39.2889 -76.7822 233° Southwest 345 397 31,200 960 Climbing Washington Center
08:23AM 39.2358 -76.8778 234° Southwest 339 390 32,100 840 Climbing Washington Center
08:24AM 39.1786 -76.9731 232° Southwest 339 390 33,000 780 Climbing Washington Center
08:25AM 39.1253 -77.0658 233° Southwest 339 390 33,700 480 Climbing Washington Center
08:26AM 39.0700 -77.1611 233° Southwest 339 390 34,000 120 Climbing Washington Center
08:27AM 39.0144 -77.2558 233° Southwest 339 390 34,000  Level Washington Center
08:28AM 38.9589 -77.3508 233° Southwest 339 390 34,000  Level Washington Center
08:29AM 38.9011 -77.4481 233° Southwest 339 390 34,000  Level Washington Center
08:30AM 38.8456 -77.5453 234° Southwest 339 390 34,000  Level Washington Center
08:31AM 38.7875 -77.6397 232° Southwest 339 390 34,000  Level Washington Center
08:32AM 38.7317 -77.7339 233° Southwest 339 390 34,000  Level Washington Center
08:33AM 38.6778 -77.8281 234° Southwest 339 390 34,000  Level Washington Center
08:34AM 38.6219 -77.9222 233° Southwest 339 390 34,000  Level Washington Center
08:35AM 38.5636 -78.0186 232° Southwest 339 390 34,000  Level Washington Center
08:36AM 38.5097 -78.1097 233° Southwest 339 390 34,000  Level Washington Center
08:37AM 38.4514 -78.2058 232° Southwest 339 390 34,000  Level Washington Center
08:38AM 38.3950 -78.2992 232° Southwest 339 390 34,000  Level Washington Center
08:39AM 38.3386 -78.3925 232° Southwest 339 390 34,000  Level Washington Center
08:40AM 38.2889 -78.4753 233° Southwest 339 390 34,000  Level Washington Center
08:41AM 38.2344 -78.5708 234° Southwest 339 390 34,000  Level Washington Center
08:42AM 38.1778 -78.6636 232° Southwest 339 390 34,000  Level Washington Center
08:43AM 38.1167 -78.7667 233° Southwest 339 390 34,000  Level Washington Center
08:44AM 38.0578 -78.8592 231° Southwest 339 390 34,000  Level Washington Center
08:45AM 38.0011 -78.9544 233° Southwest 339 390 34,000  Level Washington Center
08:46AM 37.9422 -79.0464 231° Southwest 339 390 34,000  Level Washington Center
08:47AM 37.8894 -79.1308 232° Southwest 339 390 34,000  Level Washington Center
08:48AM 37.8244 -79.2172 226° Southwest 339 390 34,000  Level Washington Center
08:49AM 37.7611 -79.3061 228° Southwest 349 402 34,000  Level Washington Center
08:50AM 37.6939 -79.3919 225° Southwest 349 402 34,000  Level Washington Center
08:51AM 37.6261 -79.4883 228° Southwest 349 402 34,000  Level Washington Center
08:52AM 37.5672 -79.5664 226° Southwest 349 402 34,000  Level Washington Center
08:53AM 37.4972 -79.6650 228° Southwest 349 402 34,000  Level Washington Center
08:54AM 37.4425 -79.7406 228° Southwest 344 396 34,000  Level Washington Center
08:55AM 37.3678 -79.8461 228° Southwest 350 403 34,000  Level Washington Center
08:56AM 37.3019 -79.9339 227° Southwest 345 397 34,000  Level Washington Center
08:59AM 37.1533 -80.1328 227° Southwest 332 382 34,000  Level Atlanta Center
09:00AM 37.0872 -80.2167 225° Southwest 332 382 34,000  Level Atlanta Center
09:01AM 37.0233 -80.3056 228° Southwest 332 382 34,000  Level Atlanta Center
09:02AM 36.9511 -80.4000 226° Southwest 332 382 34,000  Level Atlanta Center
09:03AM 36.8889 -80.4858 228° Southwest 332 382 34,000  Level Atlanta Center
09:04AM 36.8228 -80.5744 227° Southwest 338 389 34,000  Level Atlanta Center
09:05AM 36.7564 -80.6603 226° Southwest 343 395 34,000  Level Atlanta Center
09:06AM 36.7019 -80.7350 228° Southwest 331 381 34,000  Level Atlanta Center
09:07AM 36.6375 -80.8231 228° Southwest 331 381 34,000  Level Atlanta Center
09:08AM 36.5731 -80.9058 226° Southwest 331 381 34,000  Level Atlanta Center
09:09AM 36.5086 -80.9936 228° Southwest 331 381 34,000  Level Atlanta Center
09:10AM 36.4458 -81.0783 227° Southwest 336 387 34,000  Level Atlanta Center
09:11AM 36.3792 -81.1633 226° Southwest 336 387 34,000  Level Atlanta Center
09:12AM 36.3144 -81.2508 227° Southwest 336 387 34,000  Level Atlanta Center
09:13AM 36.2475 -81.3356 226° Southwest 336 387 34,000  Level Atlanta Center
09:14AM 36.1847 -81.4200 227° Southwest 336 387 34,000  Level Atlanta Center
09:15AM 36.1178 -81.5069 226° Southwest 342 394 34,000  Level Atlanta Center
09:16AM 36.0506 -81.5964 227° Southwest 348 400 34,000  Level Atlanta Center
09:17AM 35.9833 -81.6806 225° Southwest 348 400 34,000  Level Atlanta Center
09:18AM 35.9203 -81.7644 227° Southwest 348 400 34,000  Level Atlanta Center
09:19AM 35.8531 -81.8508 226° Southwest 348 400 34,000  Level Atlanta Center
09:20AM 35.7858 -81.9319 224° Southwest 348 400 34,000  Level Atlanta Center
09:21AM 35.7225 -82.0181 228° Southwest 348 400 34,000  Level Atlanta Center
09:22AM 35.6528 -82.0989 223° Southwest 348 400 34,000  Level Atlanta Center
09:23AM 35.5872 -82.1772 224° Southwest 353 406 34,000  Level Atlanta Center
09:24AM 35.5156 -82.2553 222° Southwest 347 399 34,000 -60 Level Atlanta Center
09:25AM 35.4456 -82.3333 222° Southwest 341 392 33,900 -660 Descending Atlanta Center
09:26AM 35.3800 -82.4111 224° Southwest 341 392 32,700 -1,200 Descending Atlanta Center
09:27AM 35.3100 -82.4889 222° Southwest 341 392 31,600 -1,140 Descending Atlanta Center
09:28AM 35.2442 -82.5664 224° Southwest 341 392 30,500 -1,200 Descending Atlanta Center
09:29AM 35.1719 -82.6439 221° Southwest 341 392 29,300 -1,200 Descending Atlanta Center
09:30AM 35.1019 -82.7211 222° Southwest 341 392 28,200 -1,200 Descending Atlanta Center
09:31AM 35.0297 -82.8008 222° Southwest 346 398 27,000 -1,200 Descending Atlanta Center
09:32AM 34.9575 -82.8856 224° Southwest 352 405 25,900 -1,200 Descending Atlanta Center
09:33AM 34.8831 -82.9628 220° Southwest 358 412 24,700 -1,200 Descending Atlanta Center
09:34AM 34.8108 -83.0419 222° Southwest 358 412 23,500 -1,200 Descending Atlanta Center
09:35AM 34.7322 -83.1289 222° Southwest 358 412 22,400 -1,200 Descending Atlanta Center
09:36AM 34.6597 -83.2106 223° Southwest 353 406 21,200 -1,200 Descending Atlanta Center
09:37AM 34.5892 -83.2894 223° Southwest 347 399 20,100 -1,200 Descending Atlanta Center
09:38AM 34.5208 -83.3656 223° Southwest 347 399 18,900 -1,200 Descending Atlanta Center
09:39AM 34.4503 -83.4444 223° Southwest 347 399 17,800 -1,140 Descending Atlanta Center
09:40AM 34.3817 -83.5228 223° Southwest 341 392 16,700 -1,140 Descending Atlanta Center
09:41AM 34.2500 -83.6500 219° Southwest 366 421 14,700 -1,200 Descending Atlanta TRACON
09:42AM 34.1833 -83.7333 226° Southwest 353 406 13,500 -1,140 Descending Atlanta TRACON
09:43AM 34.1167 -83.8167 226° Southwest 303 349 12,500 -900 Descending Atlanta TRACON
09:44AM 34.0667 -83.8833 228° Southwest 290 334 11,800 -1,200 Descending Atlanta TRACON
09:45AM 34.0000 -83.9500 220° Southwest 275 316 10,200 -1,440 Descending Atlanta TRACON
09:46AM 33.9667 -84.0333 244° Southwest 270 311 9,000 -600 Descending Atlanta TRACON
09:47AM 33.9000 -84.0667 203° Southwest 293 337 9,000 -840 Level Atlanta TRACON
09:48AM 33.8333 -84.0667 180° South 289 333 7,500 -1,620 Descending Atlanta TRACON
09:49AM 33.7500 -84.0833 189° South 302 348 6,000 -960 Descending Atlanta TRACON
09:50AM 33.6667 -84.0833 180° South 255 293 5,600 -420 Descending Atlanta TRACON
09:51AM 33.6500 -84.1333 248° West 178 205 5,200 -540 Descending Atlanta TRACON
09:52AM 33.6500 -84.2000 270° West 187 215 4,600 -900 Descending Atlanta TRACON
09:53AM 33.6500 -84.2500 270° West 185 213 3,500 -1,020 Descending Atlanta TRACON
09:54AM 33.6500 -84.3167 270° West 175 201 2,600 -900 Descending Atlanta TRACON
09:55AM 33.6500 -84.3667 270° West 132 152 1,800 -840 Descending Atlanta TRACON
09:57AM 33.6367 -84.4279 270° West  Level Estimated
10:04AM 33.6367 -84.4279 103° East  Level Estimated
10:05AM 33.6367 -84.4279 103° East  Level Estimated